sensor_id;sensor_type;location;lat;lon;timestamp;P1;durP1;ratioP1;P2;durP2;ratioP2
14235;SDS011;7202;50.718;7.072;2022-08-24T00:00:39;2.70;;;2.47;;
14235;SDS011;7202;50.718;7.072;2022-08-24T00:03:07;5.30;;;2.38;;
14235;SDS011;7202;50.718;7.072;2022-08-24T00:05:38;6.18;;;2.40;;
14235;SDS011;7202;50.718;7.072;2022-08-24T00:08:07;4.28;;;2.05;;
14235;SDS011;7202;50.718;7.072;2022-08-24T00:10:37;2.92;;;2.00;;
14235;SDS011;7202;50.718;7.072;2022-08-24T00:13:06;4.57;;;2.15;;
14235;SDS011;7202;50.718;7.072;2022-08-24T00:15:35;3.00;;;1.90;;
14235;SDS011;7202;50.718;7.072;2022-08-24T00:18:04;2.53;;;1.83;;
14235;SDS011;7202;50.718;7.072;2022-08-24T00:20:33;3.88;;;2.08;;
14235;SDS011;7202;50.718;7.072;2022-08-24T00:23:01;5.30;;;2.25;;
14235;SDS011;7202;50.718;7.072;2022-08-24T00:25:30;5.65;;;2.60;;
14235;SDS011;7202;50.718;7.072;2022-08-24T00:28:01;4.60;;;2.20;;
14235;SDS011;7202;50.718;7.072;2022-08-24T00:30:31;3.25;;;2.28;;
14235;SDS011;7202;50.718;7.072;2022-08-24T00:33:01;4.38;;;2.22;;
14235;SDS011;7202;50.718;7.072;2022-08-24T00:35:30;2.85;;;2.00;;
14235;SDS011;7202;50.718;7.072;2022-08-24T00:37:59;4.53;;;2.38;;
14235;SDS011;7202;50.718;7.072;2022-08-24T00:40:37;3.63;;;2.08;;
14235;SDS011;7202;50.718;7.072;2022-08-24T00:43:09;8.82;;;2.22;;
14235;SDS011;7202;50.718;7.072;2022-08-24T00:45:40;4.93;;;2.92;;
14235;SDS011;7202;50.718;7.072;2022-08-24T00:48:13;4.18;;;2.33;;
14235;SDS011;7202;50.718;7.072;2022-08-24T00:50:54;4.97;;;2.50;;
14235;SDS011;7202;50.718;7.072;2022-08-24T00:53:26;4.00;;;2.40;;
14235;SDS011;7202;50.718;7.072;2022-08-24T00:56:02;2.70;;;2.25;;
14235;SDS011;7202;50.718;7.072;2022-08-24T00:58:35;3.97;;;2.58;;
14235;SDS011;7202;50.718;7.072;2022-08-24T01:01:07;3.85;;;2.60;;
14235;SDS011;7202;50.718;7.072;2022-08-24T01:03:40;3.63;;;2.40;;
14235;SDS011;7202;50.718;7.072;2022-08-24T01:06:12;6.30;;;2.35;;
14235;SDS011;7202;50.718;7.072;2022-08-24T01:08:41;5.45;;;2.25;;
14235;SDS011;7202;50.718;7.072;2022-08-24T01:11:13;4.53;;;2.28;;
14235;SDS011;7202;50.718;7.072;2022-08-24T01:13:46;4.28;;;2.35;;
14235;SDS011;7202;50.718;7.072;2022-08-24T01:16:18;3.42;;;2.40;;
14235;SDS011;7202;50.718;7.072;2022-08-24T01:19:02;4.38;;;2.30;;
14235;SDS011;7202;50.718;7.072;2022-08-24T01:21:35;4.43;;;2.25;;
14235;SDS011;7202;50.718;7.072;2022-08-24T01:24:10;6.55;;;2.55;;
14235;SDS011;7202;50.718;7.072;2022-08-24T01:26:41;3.65;;;2.38;;
14235;SDS011;7202;50.718;7.072;2022-08-24T01:29:14;4.43;;;2.75;;
14235;SDS011;7202;50.718;7.072;2022-08-24T01:31:45;4.07;;;2.63;;
14235;SDS011;7202;50.718;7.072;2022-08-24T01:34:14;3.22;;;2.28;;
14235;SDS011;7202;50.718;7.072;2022-08-24T01:36:43;4.60;;;2.25;;
14235;SDS011;7202;50.718;7.072;2022-08-24T01:39:16;3.83;;;2.13;;
14235;SDS011;7202;50.718;7.072;2022-08-24T01:41:49;6.25;;;2.67;;
14235;SDS011;7202;50.718;7.072;2022-08-24T01:44:18;3.50;;;2.58;;
14235;SDS011;7202;50.718;7.072;2022-08-24T01:46:50;3.15;;;2.15;;
14235;SDS011;7202;50.718;7.072;2022-08-24T01:49:21;5.75;;;3.00;;
14235;SDS011;7202;50.718;7.072;2022-08-24T01:51:52;3.67;;;2.35;;
14235;SDS011;7202;50.718;7.072;2022-08-24T01:54:23;3.22;;;2.67;;
14235;SDS011;7202;50.718;7.072;2022-08-24T01:56:52;3.88;;;2.38;;
14235;SDS011;7202;50.718;7.072;2022-08-24T01:59:21;5.07;;;2.70;;
14235;SDS011;7202;50.718;7.072;2022-08-24T02:01:52;3.88;;;2.40;;
14235;SDS011;7202;50.718;7.072;2022-08-24T02:04:23;2.90;;;2.38;;
14235;SDS011;7202;50.718;7.072;2022-08-24T02:06:54;2.92;;;2.28;;
14235;SDS011;7202;50.718;7.072;2022-08-24T02:09:24;5.93;;;2.53;;
14235;SDS011;7202;50.718;7.072;2022-08-24T02:11:59;5.00;;;2.90;;
14235;SDS011;7202;50.718;7.072;2022-08-24T02:14:33;5.20;;;2.47;;
14235;SDS011;7202;50.718;7.072;2022-08-24T02:17:03;4.65;;;2.80;;
14235;SDS011;7202;50.718;7.072;2022-08-24T02:19:33;3.13;;;1.98;;
14235;SDS011;7202;50.718;7.072;2022-08-24T02:22:02;2.90;;;2.10;;
14235;SDS011;7202;50.718;7.072;2022-08-24T02:24:36;5.63;;;2.75;;
14235;SDS011;7202;50.718;7.072;2022-08-24T02:27:06;5.63;;;2.65;;
14235;SDS011;7202;50.718;7.072;2022-08-24T02:29:34;5.70;;;2.53;;
14235;SDS011;7202;50.718;7.072;2022-08-24T02:32:04;3.70;;;2.58;;
14235;SDS011;7202;50.718;7.072;2022-08-24T02:34:33;3.63;;;2.50;;
14235;SDS011;7202;50.718;7.072;2022-08-24T02:37:02;4.90;;;2.53;;
14235;SDS011;7202;50.718;7.072;2022-08-24T02:39:31;3.53;;;2.30;;
14235;SDS011;7202;50.718;7.072;2022-08-24T02:42:05;4.28;;;2.38;;
14235;SDS011;7202;50.718;7.072;2022-08-24T02:44:34;3.95;;;2.67;;
14235;SDS011;7202;50.718;7.072;2022-08-24T02:47:03;10.45;;;2.60;;
14235;SDS011;7202;50.718;7.072;2022-08-24T02:49:33;4.57;;;2.70;;
14235;SDS011;7202;50.718;7.072;2022-08-24T02:52:02;3.50;;;2.60;;
14235;SDS011;7202;50.718;7.072;2022-08-24T02:54:34;3.47;;;2.85;;
14235;SDS011;7202;50.718;7.072;2022-08-24T02:57:03;3.63;;;2.58;;
14235;SDS011;7202;50.718;7.072;2022-08-24T02:59:33;3.30;;;2.25;;
14235;SDS011;7202;50.718;7.072;2022-08-24T03:02:02;3.38;;;2.40;;
14235;SDS011;7202;50.718;7.072;2022-08-24T03:04:31;2.75;;;2.40;;
14235;SDS011;7202;50.718;7.072;2022-08-24T03:07:02;2.85;;;2.55;;
14235;SDS011;7202;50.718;7.072;2022-08-24T03:09:31;3.90;;;2.42;;
14235;SDS011;7202;50.718;7.072;2022-08-24T03:12:00;2.60;;;2.38;;
14235;SDS011;7202;50.718;7.072;2022-08-24T03:14:29;6.43;;;3.17;;
14235;SDS011;7202;50.718;7.072;2022-08-24T03:16:59;3.38;;;2.53;;
14235;SDS011;7202;50.718;7.072;2022-08-24T03:19:28;6.03;;;2.70;;
14235;SDS011;7202;50.718;7.072;2022-08-24T03:21:56;4.97;;;2.40;;
14235;SDS011;7202;50.718;7.072;2022-08-24T03:24:25;4.00;;;2.67;;
14235;SDS011;7202;50.718;7.072;2022-08-24T03:26:54;4.18;;;2.58;;
14235;SDS011;7202;50.718;7.072;2022-08-24T03:29:25;2.88;;;2.30;;
14235;SDS011;7202;50.718;7.072;2022-08-24T03:32:01;3.00;;;2.42;;
14235;SDS011;7202;50.718;7.072;2022-08-24T03:34:31;5.65;;;2.50;;
14235;SDS011;7202;50.718;7.072;2022-08-24T03:37:00;2.92;;;2.40;;
14235;SDS011;7202;50.718;7.072;2022-08-24T03:39:28;5.50;;;2.47;;
14235;SDS011;7202;50.718;7.072;2022-08-24T03:41:57;2.97;;;2.42;;
14235;SDS011;7202;50.718;7.072;2022-08-24T03:44:26;3.92;;;2.33;;
14235;SDS011;7202;50.718;7.072;2022-08-24T03:46:55;3.42;;;2.70;;
14235;SDS011;7202;50.718;7.072;2022-08-24T03:49:27;5.78;;;2.95;;
14235;SDS011;7202;50.718;7.072;2022-08-24T03:51:55;2.95;;;2.53;;
14235;SDS011;7202;50.718;7.072;2022-08-24T03:54:24;2.80;;;2.35;;
14235;SDS011;7202;50.718;7.072;2022-08-24T03:56:54;3.83;;;2.70;;
14235;SDS011;7202;50.718;7.072;2022-08-24T03:59:24;5.43;;;2.35;;
14235;SDS011;7202;50.718;7.072;2022-08-24T04:01:56;2.75;;;2.35;;
14235;SDS011;7202;50.718;7.072;2022-08-24T04:04:27;5.05;;;2.70;;
14235;SDS011;7202;50.718;7.072;2022-08-24T04:06:56;4.22;;;2.30;;
14235;SDS011;7202;50.718;7.072;2022-08-24T04:09:26;3.97;;;2.83;;
14235;SDS011;7202;50.718;7.072;2022-08-24T04:11:55;3.15;;;2.40;;
14235;SDS011;7202;50.718;7.072;2022-08-24T04:14:25;2.92;;;2.55;;
14235;SDS011;7202;50.718;7.072;2022-08-24T04:17:10;3.88;;;2.42;;
14235;SDS011;7202;50.718;7.072;2022-08-24T04:19:44;3.03;;;2.53;;
14235;SDS011;7202;50.718;7.072;2022-08-24T04:22:27;5.10;;;2.35;;
14235;SDS011;7202;50.718;7.072;2022-08-24T04:24:58;4.07;;;2.65;;
14235;SDS011;7202;50.718;7.072;2022-08-24T04:27:34;4.45;;;2.70;;
14235;SDS011;7202;50.718;7.072;2022-08-24T04:30:04;3.92;;;2.58;;
14235;SDS011;7202;50.718;7.072;2022-08-24T04:32:48;2.72;;;2.53;;
14235;SDS011;7202;50.718;7.072;2022-08-24T04:35:19;8.45;;;2.60;;
14235;SDS011;7202;50.718;7.072;2022-08-24T04:37:48;3.22;;;2.60;;
14235;SDS011;7202;50.718;7.072;2022-08-24T04:40:16;3.20;;;2.83;;
14235;SDS011;7202;50.718;7.072;2022-08-24T04:42:48;3.53;;;2.53;;
14235;SDS011;7202;50.718;7.072;2022-08-24T04:45:17;2.92;;;2.53;;
14235;SDS011;7202;50.718;7.072;2022-08-24T04:47:45;4.15;;;2.60;;
14235;SDS011;7202;50.718;7.072;2022-08-24T04:50:14;5.15;;;2.97;;
14235;SDS011;7202;50.718;7.072;2022-08-24T04:52:51;4.53;;;3.10;;
14235;SDS011;7202;50.718;7.072;2022-08-24T04:55:20;4.43;;;2.72;;
14235;SDS011;7202;50.718;7.072;2022-08-24T04:57:49;3.78;;;2.88;;
14235;SDS011;7202;50.718;7.072;2022-08-24T05:00:19;5.97;;;3.22;;
14235;SDS011;7202;50.718;7.072;2022-08-24T05:02:48;5.22;;;2.75;;
14235;SDS011;7202;50.718;7.072;2022-08-24T05:05:17;2.97;;;2.58;;
14235;SDS011;7202;50.718;7.072;2022-08-24T05:07:45;4.07;;;2.90;;
14235;SDS011;7202;50.718;7.072;2022-08-24T05:10:20;4.50;;;3.00;;
14235;SDS011;7202;50.718;7.072;2022-08-24T05:12:49;8.20;;;2.97;;
14235;SDS011;7202;50.718;7.072;2022-08-24T05:15:18;4.80;;;2.85;;
14235;SDS011;7202;50.718;7.072;2022-08-24T05:17:47;7.40;;;3.20;;
14235;SDS011;7202;50.718;7.072;2022-08-24T05:20:18;4.05;;;2.85;;
14235;SDS011;7202;50.718;7.072;2022-08-24T05:22:50;4.70;;;3.25;;
14235;SDS011;7202;50.718;7.072;2022-08-24T05:25:36;5.18;;;3.10;;
14235;SDS011;7202;50.718;7.072;2022-08-24T05:28:05;4.20;;;3.05;;
14235;SDS011;7202;50.718;7.072;2022-08-24T05:30:34;7.05;;;2.90;;
14235;SDS011;7202;50.718;7.072;2022-08-24T05:33:08;5.50;;;2.70;;
14235;SDS011;7202;50.718;7.072;2022-08-24T05:35:38;4.63;;;3.15;;
14235;SDS011;7202;50.718;7.072;2022-08-24T05:38:10;4.35;;;3.20;;
14235;SDS011;7202;50.718;7.072;2022-08-24T05:40:40;5.05;;;2.90;;
14235;SDS011;7202;50.718;7.072;2022-08-24T05:43:10;4.07;;;2.80;;
14235;SDS011;7202;50.718;7.072;2022-08-24T05:45:39;5.93;;;2.90;;
14235;SDS011;7202;50.718;7.072;2022-08-24T05:48:10;5.05;;;3.10;;
14235;SDS011;7202;50.718;7.072;2022-08-24T05:51:05;4.28;;;3.03;;
14235;SDS011;7202;50.718;7.072;2022-08-24T05:53:41;4.60;;;2.92;;
14235;SDS011;7202;50.718;7.072;2022-08-24T05:56:13;3.85;;;3.00;;
14235;SDS011;7202;50.718;7.072;2022-08-24T05:58:44;3.45;;;2.58;;
14235;SDS011;7202;50.718;7.072;2022-08-24T06:01:15;4.72;;;3.17;;
14235;SDS011;7202;50.718;7.072;2022-08-24T06:03:45;8.13;;;3.10;;
14235;SDS011;7202;50.718;7.072;2022-08-24T06:06:15;9.30;;;3.13;;
14235;SDS011;7202;50.718;7.072;2022-08-24T06:08:46;5.68;;;3.17;;
14235;SDS011;7202;50.718;7.072;2022-08-24T06:11:21;3.72;;;2.90;;
14235;SDS011;7202;50.718;7.072;2022-08-24T06:13:58;6.70;;;2.80;;
14235;SDS011;7202;50.718;7.072;2022-08-24T06:16:36;5.07;;;2.92;;
14235;SDS011;7202;50.718;7.072;2022-08-24T06:19:07;4.53;;;3.15;;
14235;SDS011;7202;50.718;7.072;2022-08-24T06:21:37;6.80;;;3.50;;
14235;SDS011;7202;50.718;7.072;2022-08-24T06:24:06;4.82;;;3.08;;
14235;SDS011;7202;50.718;7.072;2022-08-24T06:26:36;4.45;;;3.13;;
14235;SDS011;7202;50.718;7.072;2022-08-24T06:29:32;6.93;;;3.00;;
14235;SDS011;7202;50.718;7.072;2022-08-24T06:32:21;5.28;;;3.28;;
14235;SDS011;7202;50.718;7.072;2022-08-24T06:34:53;4.70;;;2.97;;
14235;SDS011;7202;50.718;7.072;2022-08-24T06:37:25;6.15;;;2.95;;
14235;SDS011;7202;50.718;7.072;2022-08-24T06:39:56;5.63;;;2.80;;
14235;SDS011;7202;50.718;7.072;2022-08-24T06:42:26;11.40;;;3.42;;
14235;SDS011;7202;50.718;7.072;2022-08-24T06:44:58;3.92;;;2.75;;
14235;SDS011;7202;50.718;7.072;2022-08-24T06:47:27;6.45;;;3.05;;
14235;SDS011;7202;50.718;7.072;2022-08-24T06:49:59;4.32;;;3.10;;
14235;SDS011;7202;50.718;7.072;2022-08-24T06:52:28;6.00;;;2.83;;
14235;SDS011;7202;50.718;7.072;2022-08-24T06:54:57;5.15;;;3.05;;
14235;SDS011;7202;50.718;7.072;2022-08-24T06:57:28;4.78;;;2.70;;
14235;SDS011;7202;50.718;7.072;2022-08-24T06:59:57;6.07;;;3.38;;
14235;SDS011;7202;50.718;7.072;2022-08-24T07:02:26;5.18;;;3.20;;
14235;SDS011;7202;50.718;7.072;2022-08-24T07:04:56;6.80;;;2.65;;
14235;SDS011;7202;50.718;7.072;2022-08-24T07:07:56;4.30;;;2.60;;
14235;SDS011;7202;50.718;7.072;2022-08-24T07:10:26;5.35;;;3.10;;
14235;SDS011;7202;50.718;7.072;2022-08-24T07:12:58;8.55;;;3.40;;
14235;SDS011;7202;50.718;7.072;2022-08-24T07:15:27;7.25;;;3.00;;
14235;SDS011;7202;50.718;7.072;2022-08-24T07:18:05;5.25;;;3.08;;
14235;SDS011;7202;50.718;7.072;2022-08-24T07:20:39;6.93;;;3.28;;
14235;SDS011;7202;50.718;7.072;2022-08-24T07:23:17;10.48;;;3.28;;
14235;SDS011;7202;50.718;7.072;2022-08-24T07:25:47;5.80;;;3.17;;
14235;SDS011;7202;50.718;7.072;2022-08-24T07:28:23;3.92;;;2.83;;
14235;SDS011;7202;50.718;7.072;2022-08-24T07:30:59;9.95;;;3.70;;
14235;SDS011;7202;50.718;7.072;2022-08-24T07:33:31;8.07;;;3.58;;
14235;SDS011;7202;50.718;7.072;2022-08-24T07:36:00;5.93;;;3.15;;
14235;SDS011;7202;50.718;7.072;2022-08-24T07:38:30;5.03;;;3.03;;
14235;SDS011;7202;50.718;7.072;2022-08-24T07:41:00;9.20;;;3.17;;
14235;SDS011;7202;50.718;7.072;2022-08-24T07:43:50;7.10;;;3.92;;
14235;SDS011;7202;50.718;7.072;2022-08-24T07:46:19;5.43;;;3.00;;
14235;SDS011;7202;50.718;7.072;2022-08-24T07:48:49;5.47;;;3.08;;
14235;SDS011;7202;50.718;7.072;2022-08-24T07:51:37;7.35;;;3.40;;
14235;SDS011;7202;50.718;7.072;2022-08-24T07:54:12;5.80;;;3.38;;
14235;SDS011;7202;50.718;7.072;2022-08-24T07:56:42;4.32;;;2.90;;
14235;SDS011;7202;50.718;7.072;2022-08-24T07:59:13;6.68;;;2.83;;
14235;SDS011;7202;50.718;7.072;2022-08-24T08:01:41;4.20;;;3.22;;
14235;SDS011;7202;50.718;7.072;2022-08-24T08:04:12;5.68;;;3.10;;
14235;SDS011;7202;50.718;7.072;2022-08-24T08:06:42;5.53;;;2.83;;
14235;SDS011;7202;50.718;7.072;2022-08-24T08:09:10;5.95;;;2.90;;
14235;SDS011;7202;50.718;7.072;2022-08-24T08:11:39;3.67;;;2.88;;
14235;SDS011;7202;50.718;7.072;2022-08-24T08:14:08;7.88;;;3.00;;
14235;SDS011;7202;50.718;7.072;2022-08-24T08:16:38;6.72;;;3.30;;
14235;SDS011;7202;50.718;7.072;2022-08-24T08:19:07;4.32;;;3.10;;
14235;SDS011;7202;50.718;7.072;2022-08-24T08:21:41;3.95;;;3.28;;
14235;SDS011;7202;50.718;7.072;2022-08-24T08:24:30;5.65;;;3.00;;
14235;SDS011;7202;50.718;7.072;2022-08-24T08:27:01;4.25;;;3.22;;
14235;SDS011;7202;50.718;7.072;2022-08-24T08:29:36;4.03;;;2.90;;
14235;SDS011;7202;50.718;7.072;2022-08-24T08:32:08;6.22;;;2.90;;
14235;SDS011;7202;50.718;7.072;2022-08-24T08:34:40;6.40;;;3.10;;
14235;SDS011;7202;50.718;7.072;2022-08-24T08:37:09;4.50;;;2.90;;
14235;SDS011;7202;50.718;7.072;2022-08-24T08:39:39;3.60;;;2.95;;
14235;SDS011;7202;50.718;7.072;2022-08-24T08:45:15;4.13;;;3.08;;
14235;SDS011;7202;50.718;7.072;2022-08-24T08:48:20;4.93;;;2.80;;
14235;SDS011;7202;50.718;7.072;2022-08-24T08:51:32;4.65;;;3.35;;
14235;SDS011;7202;50.718;7.072;2022-08-24T08:54:31;4.78;;;3.20;;
14235;SDS011;7202;50.718;7.072;2022-08-24T09:00:17;4.28;;;3.15;;
14235;SDS011;7202;50.718;7.072;2022-08-24T09:06:41;4.13;;;3.03;;
14235;SDS011;7202;50.718;7.072;2022-08-24T09:09:46;5.22;;;3.05;;
14235;SDS011;7202;50.718;7.072;2022-08-24T09:12:37;6.28;;;3.15;;
14235;SDS011;7202;50.718;7.072;2022-08-24T09:15:28;5.75;;;3.60;;
14235;SDS011;7202;50.718;7.072;2022-08-24T09:18:07;6.22;;;3.28;;
14235;SDS011;7202;50.718;7.072;2022-08-24T09:20:49;4.18;;;2.80;;
14235;SDS011;7202;50.718;7.072;2022-08-24T09:23:30;3.95;;;2.75;;
14235;SDS011;7202;50.718;7.072;2022-08-24T09:26:06;4.07;;;2.80;;
14235;SDS011;7202;50.718;7.072;2022-08-24T09:28:47;5.57;;;3.22;;
14235;SDS011;7202;50.718;7.072;2022-08-24T09:34:17;6.40;;;3.10;;
14235;SDS011;7202;50.718;7.072;2022-08-24T09:36:56;4.70;;;3.38;;
14235;SDS011;7202;50.718;7.072;2022-08-24T09:39:34;5.18;;;3.10;;
14235;SDS011;7202;50.718;7.072;2022-08-24T09:42:20;7.75;;;3.80;;
14235;SDS011;7202;50.718;7.072;2022-08-24T09:45:28;5.47;;;2.90;;
14235;SDS011;7202;50.718;7.072;2022-08-24T09:57:26;5.90;;;3.60;;
14235;SDS011;7202;50.718;7.072;2022-08-24T10:00:26;7.45;;;3.33;;
14235;SDS011;7202;50.718;7.072;2022-08-24T10:02:59;9.18;;;3.35;;
14235;SDS011;7202;50.718;7.072;2022-08-24T10:05:41;7.00;;;3.30;;
14235;SDS011;7202;50.718;7.072;2022-08-24T10:08:30;7.28;;;3.08;;
14235;SDS011;7202;50.718;7.072;2022-08-24T10:11:10;4.82;;;3.17;;
14235;SDS011;7202;50.718;7.072;2022-08-24T10:13:51;6.05;;;3.50;;
14235;SDS011;7202;50.718;7.072;2022-08-24T10:16:27;5.22;;;3.35;;
14235;SDS011;7202;50.718;7.072;2022-08-24T10:19:14;6.65;;;3.10;;
14235;SDS011;7202;50.718;7.072;2022-08-24T10:21:57;4.22;;;3.63;;
14235;SDS011;7202;50.718;7.072;2022-08-24T10:24:37;5.18;;;3.20;;
14235;SDS011;7202;50.718;7.072;2022-08-24T10:27:22;4.20;;;3.05;;
14235;SDS011;7202;50.718;7.072;2022-08-24T10:30:17;6.05;;;3.10;;
14235;SDS011;7202;50.718;7.072;2022-08-24T10:33:03;3.97;;;3.00;;
14235;SDS011;7202;50.718;7.072;2022-08-24T10:35:42;3.67;;;3.08;;
14235;SDS011;7202;50.718;7.072;2022-08-24T10:38:38;6.28;;;2.85;;
14235;SDS011;7202;50.718;7.072;2022-08-24T10:41:48;6.75;;;3.50;;
14235;SDS011;7202;50.718;7.072;2022-08-24T10:44:41;3.78;;;3.20;;
14235;SDS011;7202;50.718;7.072;2022-08-24T10:47:18;5.00;;;2.83;;
14235;SDS011;7202;50.718;7.072;2022-08-24T10:49:56;3.20;;;2.75;;
14235;SDS011;7202;50.718;7.072;2022-08-24T10:55:41;6.57;;;3.00;;
14235;SDS011;7202;50.718;7.072;2022-08-24T10:58:22;5.68;;;3.08;;
14235;SDS011;7202;50.718;7.072;2022-08-24T11:01:18;3.60;;;2.92;;
14235;SDS011;7202;50.718;7.072;2022-08-24T11:03:51;2.95;;;2.70;;
14235;SDS011;7202;50.718;7.072;2022-08-24T11:06:23;5.70;;;3.10;;
14235;SDS011;7202;50.718;7.072;2022-08-24T11:08:55;6.90;;;3.00;;
14235;SDS011;7202;50.718;7.072;2022-08-24T11:11:28;3.95;;;2.95;;
14235;SDS011;7202;50.718;7.072;2022-08-24T11:14:00;5.18;;;2.90;;
14235;SDS011;7202;50.718;7.072;2022-08-24T11:16:38;4.82;;;3.05;;
14235;SDS011;7202;50.718;7.072;2022-08-24T11:19:09;3.25;;;2.88;;
14235;SDS011;7202;50.718;7.072;2022-08-24T11:21:44;7.10;;;2.80;;
14235;SDS011;7202;50.718;7.072;2022-08-24T11:27:17;4.68;;;2.92;;
14235;SDS011;7202;50.718;7.072;2022-08-24T11:29:57;6.22;;;2.70;;
14235;SDS011;7202;50.718;7.072;2022-08-24T11:32:42;3.42;;;2.85;;
14235;SDS011;7202;50.718;7.072;2022-08-24T11:35:21;3.38;;;2.70;;
14235;SDS011;7202;50.718;7.072;2022-08-24T11:37:52;5.15;;;2.60;;
14235;SDS011;7202;50.718;7.072;2022-08-24T11:40:25;3.63;;;2.42;;
14235;SDS011;7202;50.718;7.072;2022-08-24T11:43:07;4.60;;;2.65;;
14235;SDS011;7202;50.718;7.072;2022-08-24T11:45:52;3.58;;;2.38;;
14235;SDS011;7202;50.718;7.072;2022-08-24T11:48:34;4.00;;;2.70;;
14235;SDS011;7202;50.718;7.072;2022-08-24T11:51:12;3.53;;;2.60;;
14235;SDS011;7202;50.718;7.072;2022-08-24T11:53:56;3.83;;;2.83;;
14235;SDS011;7202;50.718;7.072;2022-08-24T11:56:32;2.90;;;2.50;;
14235;SDS011;7202;50.718;7.072;2022-08-24T11:59:09;3.22;;;2.50;;
14235;SDS011;7202;50.718;7.072;2022-08-24T12:01:47;5.72;;;2.70;;
14235;SDS011;7202;50.718;7.072;2022-08-24T12:04:29;3.47;;;2.45;;
14235;SDS011;7202;50.718;7.072;2022-08-24T12:07:14;2.88;;;2.30;;
14235;SDS011;7202;50.718;7.072;2022-08-24T12:10:00;2.95;;;2.55;;
14235;SDS011;7202;50.718;7.072;2022-08-24T12:12:45;3.17;;;2.53;;
14235;SDS011;7202;50.718;7.072;2022-08-24T12:15:19;2.72;;;2.30;;
14235;SDS011;7202;50.718;7.072;2022-08-24T12:17:58;4.30;;;2.40;;
14235;SDS011;7202;50.718;7.072;2022-08-24T12:20:34;3.30;;;2.60;;
14235;SDS011;7202;50.718;7.072;2022-08-24T12:23:10;12.75;;;3.15;;
14235;SDS011;7202;50.718;7.072;2022-08-24T12:25:44;5.32;;;2.10;;
14235;SDS011;7202;50.718;7.072;2022-08-24T12:28:33;4.20;;;2.40;;
14235;SDS011;7202;50.718;7.072;2022-08-24T12:31:06;3.08;;;2.33;;
14235;SDS011;7202;50.718;7.072;2022-08-24T12:33:43;4.65;;;2.20;;
14235;SDS011;7202;50.718;7.072;2022-08-24T12:36:21;3.78;;;2.47;;
14235;SDS011;7202;50.718;7.072;2022-08-24T12:39:00;3.33;;;2.67;;
14235;SDS011;7202;50.718;7.072;2022-08-24T12:41:37;4.28;;;2.40;;
14235;SDS011;7202;50.718;7.072;2022-08-24T12:44:13;4.70;;;2.83;;
14235;SDS011;7202;50.718;7.072;2022-08-24T12:46:43;2.92;;;2.42;;
14235;SDS011;7202;50.718;7.072;2022-08-24T12:49:22;2.95;;;2.30;;
14235;SDS011;7202;50.718;7.072;2022-08-24T12:52:02;5.70;;;2.40;;
14235;SDS011;7202;50.718;7.072;2022-08-24T12:54:56;2.80;;;2.15;;
14235;SDS011;7202;50.718;7.072;2022-08-24T12:57:51;3.90;;;2.67;;
14235;SDS011;7202;50.718;7.072;2022-08-24T13:00:53;2.92;;;2.40;;
14235;SDS011;7202;50.718;7.072;2022-08-24T13:03:29;6.25;;;2.92;;
14235;SDS011;7202;50.718;7.072;2022-08-24T13:06:01;3.10;;;2.22;;
14235;SDS011;7202;50.718;7.072;2022-08-24T13:08:36;6.47;;;2.40;;
14235;SDS011;7202;50.718;7.072;2022-08-24T13:11:10;4.43;;;2.33;;
14235;SDS011;7202;50.718;7.072;2022-08-24T13:13:43;3.10;;;2.42;;
14235;SDS011;7202;50.718;7.072;2022-08-24T13:25:22;5.30;;;2.85;;
14235;SDS011;7202;50.718;7.072;2022-08-24T13:30:36;5.32;;;2.55;;
14235;SDS011;7202;50.718;7.072;2022-08-24T13:33:26;3.38;;;2.80;;
14235;SDS011;7202;50.718;7.072;2022-08-24T13:36:00;3.53;;;2.83;;
14235;SDS011;7202;50.718;7.072;2022-08-24T13:41:44;3.55;;;2.38;;
14235;SDS011;7202;50.718;7.072;2022-08-24T13:44:19;6.28;;;2.15;;
14235;SDS011;7202;50.718;7.072;2022-08-24T13:46:59;4.25;;;3.13;;
14235;SDS011;7202;50.718;7.072;2022-08-24T13:52:31;3.55;;;2.55;;
14235;SDS011;7202;50.718;7.072;2022-08-24T13:55:14;5.03;;;2.63;;
14235;SDS011;7202;50.718;7.072;2022-08-24T14:01:17;3.95;;;2.63;;
14235;SDS011;7202;50.718;7.072;2022-08-24T14:04:14;3.13;;;2.63;;
14235;SDS011;7202;50.718;7.072;2022-08-24T14:06:59;7.80;;;2.85;;
14235;SDS011;7202;50.718;7.072;2022-08-24T14:09:34;3.20;;;2.63;;
14235;SDS011;7202;50.718;7.072;2022-08-24T14:12:12;3.05;;;2.35;;
14235;SDS011;7202;50.718;7.072;2022-08-24T14:14:50;4.05;;;2.40;;
14235;SDS011;7202;50.718;7.072;2022-08-24T14:17:28;2.83;;;2.40;;
14235;SDS011;7202;50.718;7.072;2022-08-24T14:29:33;3.75;;;2.70;;
14235;SDS011;7202;50.718;7.072;2022-08-24T14:38:08;3.28;;;2.50;;
14235;SDS011;7202;50.718;7.072;2022-08-24T14:41:02;3.53;;;2.63;;
14235;SDS011;7202;50.718;7.072;2022-08-24T14:43:58;4.07;;;2.10;;
14235;SDS011;7202;50.718;7.072;2022-08-24T14:46:39;4.82;;;2.70;;
14235;SDS011;7202;50.718;7.072;2022-08-24T14:49:21;4.38;;;2.47;;
14235;SDS011;7202;50.718;7.072;2022-08-24T14:52:01;3.55;;;2.55;;
14235;SDS011;7202;50.718;7.072;2022-08-24T14:54:42;3.45;;;2.72;;
14235;SDS011;7202;50.718;7.072;2022-08-24T15:00:15;6.00;;;2.55;;
14235;SDS011;7202;50.718;7.072;2022-08-24T15:06:02;2.60;;;2.40;;
14235;SDS011;7202;50.718;7.072;2022-08-24T15:09:04;4.85;;;2.50;;
14235;SDS011;7202;50.718;7.072;2022-08-24T15:11:34;6.18;;;2.25;;
14235;SDS011;7202;50.718;7.072;2022-08-24T15:14:06;3.70;;;2.75;;
14235;SDS011;7202;50.718;7.072;2022-08-24T15:16:49;2.90;;;2.40;;
14235;SDS011;7202;50.718;7.072;2022-08-24T15:19:23;2.58;;;2.38;;
14235;SDS011;7202;50.718;7.072;2022-08-24T15:22:00;3.50;;;2.50;;
14235;SDS011;7202;50.718;7.072;2022-08-24T15:24:33;2.97;;;2.67;;
14235;SDS011;7202;50.718;7.072;2022-08-24T15:27:09;3.25;;;2.58;;
14235;SDS011;7202;50.718;7.072;2022-08-24T15:29:46;3.00;;;2.35;;
14235;SDS011;7202;50.718;7.072;2022-08-24T15:32:19;4.25;;;2.47;;
14235;SDS011;7202;50.718;7.072;2022-08-24T15:34:54;4.47;;;2.38;;
14235;SDS011;7202;50.718;7.072;2022-08-24T15:37:27;3.13;;;2.72;;
14235;SDS011;7202;50.718;7.072;2022-08-24T15:39:57;5.72;;;2.40;;
14235;SDS011;7202;50.718;7.072;2022-08-24T15:42:28;6.22;;;3.33;;
14235;SDS011;7202;50.718;7.072;2022-08-24T15:45:01;4.90;;;2.38;;
14235;SDS011;7202;50.718;7.072;2022-08-24T15:47:31;3.63;;;2.72;;
14235;SDS011;7202;50.718;7.072;2022-08-24T15:50:04;4.15;;;2.60;;
14235;SDS011;7202;50.718;7.072;2022-08-24T15:52:44;4.63;;;2.35;;
14235;SDS011;7202;50.718;7.072;2022-08-24T15:55:30;4.80;;;2.40;;
14235;SDS011;7202;50.718;7.072;2022-08-24T16:00:57;2.60;;;2.40;;
14235;SDS011;7202;50.718;7.072;2022-08-24T16:03:47;2.50;;;2.28;;
14235;SDS011;7202;50.718;7.072;2022-08-24T16:06:20;5.30;;;2.47;;
14235;SDS011;7202;50.718;7.072;2022-08-24T16:08:55;3.53;;;2.75;;
14235;SDS011;7202;50.718;7.072;2022-08-24T16:11:27;4.57;;;2.85;;
14235;SDS011;7202;50.718;7.072;2022-08-24T16:13:59;6.97;;;2.80;;
14235;SDS011;7202;50.718;7.072;2022-08-24T16:16:32;3.10;;;2.40;;
14235;SDS011;7202;50.718;7.072;2022-08-24T16:19:04;2.97;;;2.50;;
14235;SDS011;7202;50.718;7.072;2022-08-24T16:21:49;3.70;;;2.50;;
14235;SDS011;7202;50.718;7.072;2022-08-24T16:24:27;3.30;;;2.40;;
14235;SDS011;7202;50.718;7.072;2022-08-24T16:26:59;7.20;;;2.85;;
14235;SDS011;7202;50.718;7.072;2022-08-24T16:29:50;2.65;;;2.08;;
14235;SDS011;7202;50.718;7.072;2022-08-24T16:32:23;2.90;;;2.30;;
14235;SDS011;7202;50.718;7.072;2022-08-24T16:35:14;4.68;;;2.88;;
14235;SDS011;7202;50.718;7.072;2022-08-24T16:37:45;3.45;;;2.40;;
14235;SDS011;7202;50.718;7.072;2022-08-24T16:40:15;3.90;;;2.78;;
14235;SDS011;7202;50.718;7.072;2022-08-24T16:42:45;3.17;;;2.45;;
14235;SDS011;7202;50.718;7.072;2022-08-24T16:45:15;3.15;;;2.63;;
14235;SDS011;7202;50.718;7.072;2022-08-24T16:47:46;3.00;;;2.40;;
14235;SDS011;7202;50.718;7.072;2022-08-24T16:50:16;4.85;;;2.63;;
14235;SDS011;7202;50.718;7.072;2022-08-24T16:52:47;3.08;;;2.55;;
14235;SDS011;7202;50.718;7.072;2022-08-24T16:55:18;3.38;;;2.65;;
14235;SDS011;7202;50.718;7.072;2022-08-24T16:57:46;2.50;;;2.03;;
14235;SDS011;7202;50.718;7.072;2022-08-24T17:00:17;4.03;;;2.20;;
14235;SDS011;7202;50.718;7.072;2022-08-24T17:02:48;6.32;;;1.95;;